Time;durP1;ratioP1;P1;durP2;ratioP2;P2;SDS_P1;SDS_P2;PMS_P1;PMS_P2;Temp;Humidity;BMP_temperature;BMP_pressure;BME280_temperature;BME280_humidity;BME280_pressure;Samples;Min_cycle;Max_cycle;Signal;HPM_P1;HPM_P2
2022/08/21 00:02:24;;;;;;;13.07;7.90;;;16.60;99.90;;;;;;4978486;28;20038;-78
2022/08/21 00:04:50;;;;;;;14.35;7.95;;;16.60;99.90;;;;;;4997142;28;20039;-78
2022/08/21 00:07:17;;;;;;;12.63;7.50;;;16.60;99.90;;;;;;4966147;28;20038;-76
2022/08/21 00:09:43;;;;;;;13.25;7.30;;;16.60;99.90;;;;;;4990068;28;20046;-77
2022/08/21 00:12:09;;;;;;;14.77;7.63;;;16.70;99.90;;;;;;4966843;28;20095;-78
2022/08/21 00:14:34;;;;;;;13.27;6.90;;;16.70;99.90;;;;;;4961924;28;20054;-77
2022/08/21 00:17:01;;;;;;;12.95;6.70;;;16.70;99.90;;;;;;4978566;28;20049;-78
2022/08/21 00:19:27;;;;;;;12.05;6.65;;;16.70;99.90;;;;;;4954448;28;20042;-77
2022/08/21 00:21:54;;;;;;;11.27;6.78;;;16.70;99.90;;;;;;4974438;28;20100;-78
2022/08/21 00:24:22;;;;;;;10.35;6.53;;;16.60;99.90;;;;;;4973913;28;20065;-77
2022/08/21 00:26:48;;;;;;;12.98;6.55;;;16.70;99.90;;;;;;4971740;28;20047;-78
2022/08/21 00:29:14;;;;;;;11.82;6.25;;;16.60;99.90;;;;;;4956375;28;20068;-78
2022/08/21 00:31:41;;;;;;;8.32;6.03;;;16.60;99.90;;;;;;4944062;28;20087;-78
2022/08/21 00:34:07;;;;;;;9.60;5.65;;;16.50;99.90;;;;;;4967383;28;20043;-78
2022/08/21 00:36:34;;;;;;;9.82;5.35;;;16.50;99.90;;;;;;4970982;28;20047;-78
2022/08/21 00:39:01;;;;;;;8.40;5.40;;;16.40;99.90;;;;;;4948471;28;20042;-77
2022/08/21 00:41:28;;;;;;;9.48;5.70;;;16.40;99.90;;;;;;4970758;28;20035;-78
2022/08/21 00:43:54;;;;;;;8.65;6.03;;;16.40;99.90;;;;;;4972520;28;20086;-78
2022/08/21 00:46:20;;;;;;;11.32;6.50;;;16.30;99.90;;;;;;4971082;28;20125;-79
2022/08/21 00:48:45;;;;;;;11.55;6.22;;;16.30;99.90;;;;;;4984875;28;20042;-80
2022/08/21 00:51:22;;;;;;;11.25;7.10;;;16.30;99.90;;;;;;4944261;28;20042;-79
2022/08/21 00:53:51;;;;;;;10.30;6.40;;;16.30;99.90;;;;;;4973095;28;20065;-80
2022/08/21 00:56:18;;;;;;;10.93;6.90;;;16.30;99.90;;;;;;4966799;28;20097;-79
2022/08/21 00:58:45;;;;;;;9.02;6.70;;;16.40;99.90;;;;;;4973300;28;20047;-79
2022/08/21 01:01:12;;;;;;;12.38;7.57;;;16.30;99.90;;;;;;4967649;28;20057;-78
2022/08/21 01:03:38;;;;;;;10.55;7.05;;;16.30;99.90;;;;;;4985241;28;20491;-79
2022/08/21 01:06:05;;;;;;;12.02;7.60;;;16.30;99.90;;;;;;4963490;28;20043;-79
2022/08/21 01:08:31;;;;;;;11.13;7.13;;;16.30;99.90;;;;;;4986049;28;20049;-79
2022/08/21 01:10:59;;;;;;;11.40;6.88;;;16.30;99.90;;;;;;4941687;28;20036;-79
2022/08/21 01:13:28;;;;;;;13.23;7.35;;;16.30;99.90;;;;;;4987776;28;20043;-79
2022/08/21 01:15:59;;;;;;;13.90;7.50;;;16.30;99.90;;;;;;4954789;28;20406;-80
2022/08/21 01:18:26;;;;;;;10.57;6.53;;;16.20;99.90;;;;;;4968991;28;20399;-79
2022/08/21 01:21:09;;;;;;;12.02;7.22;;;16.20;99.90;;;;;;4964604;28;20125;-79
2022/08/21 01:23:38;;;;;;;10.00;6.70;;;16.20;99.90;;;;;;4961704;28;20427;-79
2022/08/21 01:26:07;;;;;;;13.65;7.38;;;16.20;99.90;;;;;;4955080;28;20456;-80
2022/08/21 01:28:38;;;;;;;13.80;7.13;;;16.10;99.90;;;;;;4980391;28;20031;-79
2022/08/21 01:31:09;;;;;;;10.43;6.90;;;16.10;99.90;;;;;;4969460;28;20114;-78
2022/08/21 01:33:35;;;;;;;10.48;7.15;;;16.10;99.90;;;;;;4952229;28;20469;-79
2022/08/21 01:36:00;;;;;;;9.95;6.90;;;16.10;99.90;;;;;;4970605;28;20050;-79
2022/08/21 01:38:26;;;;;;;14.13;7.28;;;16.10;99.90;;;;;;4962740;28;20439;-79
2022/08/21 01:40:52;;;;;;;13.23;7.00;;;16.10;99.90;;;;;;4966788;28;20051;-78
2022/08/21 01:43:17;;;;;;;11.90;6.93;;;16.00;99.90;;;;;;4968772;28;20453;-78
2022/08/21 01:45:44;;;;;;;11.55;6.65;;;16.00;99.90;;;;;;4968575;28;20552;-79
2022/08/21 01:48:10;;;;;;;12.23;7.10;;;16.00;99.90;;;;;;4967163;28;20125;-79
2022/08/21 01:50:35;;;;;;;9.13;7.20;;;16.00;99.90;;;;;;4968228;28;20775;-79
2022/08/21 01:53:02;;;;;;;13.02;7.15;;;16.00;99.90;;;;;;4948424;28;20035;-79
2022/08/21 01:55:28;;;;;;;12.52;7.05;;;16.00;99.90;;;;;;4969178;28;20403;-79
2022/08/21 01:57:55;;;;;;;12.02;7.32;;;15.90;99.90;;;;;;4951724;28;20047;-78
2022/08/21 02:00:22;;;;;;;11.57;6.82;;;15.90;99.90;;;;;;4949598;28;20063;-78
2022/08/21 02:02:49;;;;;;;8.68;6.70;;;15.90;99.90;;;;;;4968176;28;20039;-78
2022/08/21 02:05:15;;;;;;;11.82;7.10;;;15.90;99.90;;;;;;4963108;28;20239;-78
2022/08/21 02:07:44;;;;;;;9.88;6.72;;;15.90;99.90;;;;;;4962166;28;20052;-78
2022/08/21 02:10:12;;;;;;;11.70;6.95;;;15.80;99.90;;;;;;4967863;28;20035;-78
2022/08/21 02:12:38;;;;;;;14.30;7.47;;;15.80;99.90;;;;;;4962889;28;20038;-78
2022/08/21 02:15:05;;;;;;;12.68;7.50;;;15.80;99.90;;;;;;4968248;28;20042;-78
2022/08/21 02:17:44;;;;;;;12.15;7.07;;;15.80;99.90;;;;;;4985164;28;20042;-78
2022/08/21 02:20:14;;;;;;;12.27;6.97;;;15.80;99.90;;;;;;4966090;28;20518;-78
2022/08/21 02:22:40;;;;;;;13.75;7.25;;;15.80;99.90;;;;;;4970319;28;20046;-78
2022/08/21 02:25:06;;;;;;;12.30;6.90;;;15.70;99.90;;;;;;4969623;28;20418;-78
2022/08/21 02:27:41;;;;;;;12.18;7.00;;;15.70;99.90;;;;;;4969250;28;20049;-78
2022/08/21 02:30:14;;;;;;;9.95;6.85;;;15.70;99.90;;;;;;4970374;28;20034;-78
2022/08/21 02:32:40;;;;;;;11.77;7.00;;;15.70;99.90;;;;;;4966593;28;20053;-78
2022/08/21 02:35:07;;;;;;;13.68;7.43;;;15.60;99.90;;;;;;4961421;28;20039;-78
2022/08/21 02:37:32;;;;;;;11.63;7.60;;;15.70;99.90;;;;;;4970021;28;20165;-78
2022/08/21 02:40:00;;;;;;;9.80;7.05;;;15.70;99.90;;;;;;4969323;28;20122;-78
2022/08/21 02:42:27;;;;;;;11.50;6.72;;;15.70;99.90;;;;;;4957237;28;20049;-78
2022/08/21 02:44:52;;;;;;;10.77;7.03;;;15.60;99.90;;;;;;4965843;28;20088;-78
2022/08/21 02:47:18;;;;;;;12.50;7.40;;;15.70;99.90;;;;;;4969702;28;20038;-78
2022/08/21 02:49:43;;;;;;;11.57;7.07;;;15.70;99.90;;;;;;4964281;28;20074;-78
2022/08/21 02:52:09;;;;;;;12.00;6.82;;;15.70;99.90;;;;;;4964300;28;20041;-78
2022/08/21 02:54:35;;;;;;;11.90;6.97;;;15.70;99.90;;;;;;4966752;28;20046;-78
2022/08/21 02:57:00;;;;;;;11.93;7.35;;;15.70;99.90;;;;;;4960169;28;20047;-78
2022/08/21 02:59:26;;;;;;;10.63;7.28;;;15.70;99.90;;;;;;4966569;28;20092;-78
2022/08/21 03:01:52;;;;;;;13.15;7.30;;;15.70;99.90;;;;;;4961213;28;20125;-78
2022/08/21 03:04:18;;;;;;;11.35;6.78;;;15.70;99.90;;;;;;4952700;28;20130;-78
2022/08/21 03:06:43;;;;;;;11.20;6.32;;;15.70;99.90;;;;;;4968773;28;20093;-78
2022/08/21 03:09:09;;;;;;;10.15;6.75;;;15.60;99.90;;;;;;4966531;28;20127;-78
2022/08/21 03:11:35;;;;;;;11.15;6.53;;;15.60;99.90;;;;;;4961079;28;20731;-78
2022/08/21 03:14:01;;;;;;;12.60;7.05;;;15.50;99.90;;;;;;4963240;28;20043;-78
2022/08/21 03:16:27;;;;;;;10.57;6.72;;;15.60;99.90;;;;;;4969443;28;20039;-78
2022/08/21 03:18:53;;;;;;;13.30;6.88;;;15.60;99.90;;;;;;4966636;28;20041;-78
2022/08/21 03:21:19;;;;;;;10.63;7.03;;;15.60;99.90;;;;;;4969044;28;20046;-78
2022/08/21 03:23:48;;;;;;;13.60;7.75;;;15.60;99.90;;;;;;4965780;28;20043;-78
2022/08/21 03:26:14;;;;;;;11.95;7.60;;;15.60;99.90;;;;;;4964767;28;20117;-78
2022/08/21 03:28:39;;;;;;;14.80;7.32;;;15.60;99.90;;;;;;4969623;28;20451;-78
2022/08/21 03:31:05;;;;;;;14.00;7.78;;;15.60;99.90;;;;;;4969170;28;20042;-78
2022/08/21 03:33:31;;;;;;;13.32;7.85;;;15.60;99.90;;;;;;4969218;28;20084;-78
2022/08/21 03:36:01;;;;;;;11.32;7.53;;;15.60;99.90;;;;;;4968620;28;20118;-78
2022/08/21 03:38:29;;;;;;;15.32;7.13;;;15.60;99.90;;;;;;4962887;28;20043;-78
2022/08/21 03:40:54;;;;;;;10.65;7.60;;;15.60;99.90;;;;;;4966591;28;20054;-78
2022/08/21 03:43:20;;;;;;;13.13;7.57;;;15.60;99.90;;;;;;4966669;28;20152;-78
2022/08/21 03:45:46;;;;;;;12.55;7.38;;;15.60;99.90;;;;;;4970447;28;20050;-77
2022/08/21 03:48:12;;;;;;;12.27;7.68;;;15.60;99.90;;;;;;4977644;28;20579;-77
2022/08/21 03:50:43;;;;;;;11.15;7.32;;;15.60;99.90;;;;;;4956201;28;20129;-78
2022/08/21 03:53:11;;;;;;;10.00;7.30;;;15.60;99.90;;;;;;4963480;28;20391;-77
2022/08/21 03:55:36;;;;;;;11.85;7.22;;;15.60;99.90;;;;;;4982389;28;20046;-77
2022/08/21 03:58:02;;;;;;;11.25;7.95;;;15.50;99.90;;;;;;4957314;28;20047;-77
2022/08/21 04:00:28;;;;;;;11.88;7.65;;;15.50;99.90;;;;;;4962177;28;20042;-78
2022/08/21 04:02:54;;;;;;;10.63;7.35;;;15.50;99.90;;;;;;4968956;28;20042;-77
2022/08/21 04:05:29;;;;;;;12.93;7.95;;;15.40;99.90;;;;;;4968930;28;20047;-77
2022/08/21 04:08:00;;;;;;;11.95;7.40;;;15.40;99.90;;;;;;4984717;28;20050;-78
2022/08/21 04:10:27;;;;;;;13.00;7.78;;;15.40;99.90;;;;;;4966976;28;20054;-78
2022/08/21 04:12:54;;;;;;;13.07;7.18;;;15.40;99.90;;;;;;4957075;28;20067;-77
2022/08/21 04:15:21;;;;;;;11.20;6.82;;;15.50;99.90;;;;;;4964301;28;20039;-77
2022/08/21 04:17:48;;;;;;;15.02;7.80;;;15.50;99.90;;;;;;4963211;28;20078;-77
2022/08/21 04:20:14;;;;;;;11.23;7.25;;;15.40;99.90;;;;;;4969791;28;20055;-78
2022/08/21 04:22:40;;;;;;;8.73;6.60;;;15.50;99.90;;;;;;4956642;28;20035;-77
2022/08/21 04:25:07;;;;;;;11.75;6.97;;;15.40;99.90;;;;;;4967913;28;20084;-78
2022/08/21 04:27:33;;;;;;;11.02;7.18;;;15.40;99.90;;;;;;4968766;28;20046;-77
2022/08/21 04:30:00;;;;;;;13.05;7.57;;;15.50;99.90;;;;;;4967058;28;20118;-77
2022/08/21 04:32:26;;;;;;;8.70;6.88;;;15.40;99.90;;;;;;4965960;28;20098;-78
2022/08/21 04:34:58;;;;;;;11.43;7.18;;;15.30;99.90;;;;;;4968813;28;20126;-77
2022/08/21 04:37:24;;;;;;;8.07;6.63;;;15.30;99.90;;;;;;4968890;28;20042;-78
2022/08/21 04:39:50;;;;;;;11.18;6.95;;;15.30;99.90;;;;;;4965254;28;20462;-78
2022/08/21 04:42:16;;;;;;;12.05;7.38;;;15.30;99.90;;;;;;4963272;28;20038;-77
2022/08/21 04:44:41;;;;;;;12.57;6.93;;;15.30;99.90;;;;;;4967832;28;20501;-77
2022/08/21 04:47:08;;;;;;;9.82;7.00;;;15.30;99.90;;;;;;4963650;28;20126;-79
2022/08/21 04:49:34;;;;;;;9.60;6.70;;;15.30;99.90;;;;;;4968514;28;20062;-79
2022/08/21 04:52:00;;;;;;;12.07;7.00;;;15.30;99.90;;;;;;4968482;28;20041;-79
2022/08/21 04:54:26;;;;;;;9.68;7.22;;;15.30;99.90;;;;;;4966501;28;20038;-78
2022/08/21 04:56:57;;;;;;;9.63;6.70;;;15.30;99.90;;;;;;4963490;28;20047;-78
2022/08/21 04:59:27;;;;;;;12.68;6.45;;;15.50;99.90;;;;;;4964539;28;20047;-79
2022/08/21 05:01:57;;;;;;;9.85;6.32;;;15.20;99.90;;;;;;4958939;28;20922;-79
2022/08/21 05:04:28;;;;;;;11.32;6.40;;;15.20;99.90;;;;;;4961414;28;20102;-78
2022/08/21 05:06:56;;;;;;;9.07;6.25;;;15.20;99.90;;;;;;4966215;28;20042;-79
2022/08/21 05:09:24;;;;;;;9.68;6.53;;;15.30;99.90;;;;;;4968089;28;20035;-78
2022/08/21 05:11:51;;;;;;;9.35;5.65;;;15.20;99.90;;;;;;4969788;28;20043;-78
2022/08/21 05:14:17;;;;;;;11.60;7.00;;;15.20;99.90;;;;;;4981354;28;20408;-79
2022/08/21 05:16:43;;;;;;;11.90;6.60;;;15.00;99.90;;;;;;4965906;28;20133;-78
2022/08/21 05:19:10;;;;;;;10.80;6.32;;;15.10;99.90;;;;;;4961082;28;20046;-78
2022/08/21 05:21:39;;;;;;;8.60;5.93;;;15.10;99.90;;;;;;4967537;28;20502;-78
2022/08/21 05:24:04;;;;;;;9.07;6.45;;;15.10;99.90;;;;;;4967180;28;20046;-78
2022/08/21 05:26:30;;;;;;;12.98;6.68;;;15.10;99.90;;;;;;4965918;28;20042;-78
2022/08/21 05:28:56;;;;;;;9.35;6.18;;;15.10;99.90;;;;;;4969210;28;20069;-78
2022/08/21 05:31:22;;;;;;;9.80;6.10;;;15.10;99.90;;;;;;4967810;28;20049;-78
2022/08/21 05:33:47;;;;;;;11.63;6.18;;;15.20;99.90;;;;;;4968483;28;20038;-78
2022/08/21 05:36:13;;;;;;;11.25;6.00;;;15.10;99.90;;;;;;4950765;28;20049;-78
2022/08/21 05:38:39;;;;;;;9.93;5.97;;;15.10;99.90;;;;;;4986481;28;20047;-79
2022/08/21 05:41:05;;;;;;;11.27;6.20;;;15.10;99.90;;;;;;4962022;28;20042;-78
2022/08/21 05:43:32;;;;;;;10.43;6.05;;;15.20;99.90;;;;;;4971378;28;20117;-78
2022/08/21 05:45:58;;;;;;;10.82;6.03;;;15.20;99.90;;;;;;4966409;28;20039;-78
2022/08/21 05:48:24;;;;;;;10.35;6.20;;;15.20;99.90;;;;;;4970268;28;20093;-78
2022/08/21 05:50:51;;;;;;;14.30;6.03;;;15.40;99.90;;;;;;4987578;28;20038;-79
2022/08/21 05:53:19;;;;;;;11.18;6.55;;;15.20;99.90;;;;;;4971513;28;20148;-79
2022/08/21 05:55:45;;;;;;;13.13;6.13;;;15.20;99.90;;;;;;4970956;28;20054;-79
2022/08/21 05:58:13;;;;;;;11.38;5.90;;;15.30;99.90;;;;;;4970666;28;20039;-79
2022/08/21 06:00:39;;;;;;;10.15;5.40;;;15.30;99.90;;;;;;4970179;28;20051;-78
2022/08/21 06:03:09;;;;;;;10.02;6.00;;;15.30;99.90;;;;;;4970775;28;20035;-78
2022/08/21 06:05:36;;;;;;;10.48;6.07;;;15.40;99.90;;;;;;4986813;28;20043;-78
2022/08/21 06:08:02;;;;;;;8.95;5.63;;;15.40;99.90;;;;;;4970808;28;20035;-79
2022/08/21 06:10:27;;;;;;;10.55;6.03;;;15.40;99.90;;;;;;4969170;28;20035;-78
2022/08/21 06:12:54;;;;;;;11.05;5.82;;;15.50;99.90;;;;;;4962568;28;20035;-79
2022/08/21 06:15:20;;;;;;;9.27;5.45;;;15.50;99.90;;;;;;4954421;28;20064;-78
2022/08/21 06:17:46;;;;;;;10.57;5.88;;;15.50;99.90;;;;;;4970234;28;20121;-79
2022/08/21 06:20:12;;;;;;;10.38;5.53;;;15.60;99.90;;;;;;4965529;28;20042;-78
2022/08/21 06:22:37;;;;;;;10.15;6.10;;;15.60;99.90;;;;;;4946991;28;20039;-79
2022/08/21 06:25:03;;;;;;;11.98;6.00;;;15.70;99.90;;;;;;4970696;28;20043;-78
2022/08/21 06:27:29;;;;;;;9.48;5.43;;;15.70;99.90;;;;;;4970225;28;20453;-78
2022/08/21 06:29:57;;;;;;;15.32;6.18;;;15.80;99.90;;;;;;4967649;28;20035;-78
2022/08/21 06:32:22;;;;;;;12.00;5.68;;;15.90;99.90;;;;;;4951381;28;20039;-79
2022/08/21 06:34:48;;;;;;;8.93;5.72;;;15.80;99.90;;;;;;4964217;28;20041;-78
2022/08/21 06:37:14;;;;;;;11.65;6.13;;;15.90;99.90;;;;;;4969093;28;20117;-78
2022/08/21 06:39:39;;;;;;;10.15;6.30;;;15.90;99.90;;;;;;4969590;28;20096;-78
2022/08/21 06:42:05;;;;;;;17.48;5.95;;;16.10;99.90;;;;;;4965320;28;20047;-79
2022/08/21 06:44:31;;;;;;;13.38;5.90;;;16.00;99.90;;;;;;4959071;28;20067;-78
2022/08/21 06:46:57;;;;;;;15.30;5.95;;;16.10;99.90;;;;;;4966139;28;20625;-78
2022/08/21 06:49:23;;;;;;;12.20;6.50;;;16.10;99.90;;;;;;4958336;28;20039;-78
2022/08/21 06:51:48;;;;;;;13.20;6.40;;;16.10;99.90;;;;;;4960635;28;20062;-78
2022/08/21 06:54:14;;;;;;;12.00;6.07;;;16.20;99.90;;;;;;4962695;28;20042;-78
2022/08/21 06:56:40;;;;;;;11.98;5.68;;;16.30;99.90;;;;;;4966329;28;20130;-78
2022/08/21 06:59:05;;;;;;;11.77;5.40;;;16.40;99.90;;;;;;4956991;28;20078;-79
2022/08/21 07:01:31;;;;;;;15.70;5.32;;;16.40;99.90;;;;;;4967670;28;20376;-78
2022/08/21 07:03:58;;;;;;;10.90;5.80;;;16.50;99.90;;;;;;4962662;28;20038;-79
2022/08/21 07:06:24;;;;;;;14.15;5.18;;;16.60;99.90;;;;;;4953577;28;20046;-78
2022/08/21 07:08:50;;;;;;;13.48;5.72;;;16.80;99.90;;;;;;4965318;28;20580;-79
2022/08/21 07:11:21;;;;;;;14.02;5.40;;;16.80;99.90;;;;;;4945851;28;20031;-78
2022/08/21 07:13:48;;;;;;;13.95;5.35;;;16.90;99.90;;;;;;4960565;28;20035;-78
2022/08/21 07:16:14;;;;;;;13.88;5.38;;;16.90;99.90;;;;;;4953475;28;20043;-78
2022/08/21 07:18:40;;;;;;;10.23;5.40;;;17.00;99.90;;;;;;4966948;28;20511;-79
2022/08/21 07:21:07;;;;;;;12.50;4.90;;;17.10;99.90;;;;;;4989974;28;20042;-73
2022/08/21 07:23:37;;;;;;;13.90;5.55;;;17.20;99.90;;;;;;4966638;28;20051;-74
2022/08/21 07:26:03;;;;;;;11.15;6.05;;;17.30;99.90;;;;;;4955223;28;20058;-74
2022/08/21 07:28:29;;;;;;;10.68;5.07;;;17.30;99.90;;;;;;4965814;28;20423;-75
2022/08/21 07:30:57;;;;;;;13.23;5.32;;;17.40;99.90;;;;;;4970783;28;20049;-74
2022/08/21 07:33:24;;;;;;;16.05;4.97;;;17.40;99.90;;;;;;4968888;28;20044;-77
2022/08/21 07:35:50;;;;;;;11.32;5.13;;;17.50;99.90;;;;;;4956495;28;20079;-79
2022/08/21 07:38:16;;;;;;;15.40;6.03;;;17.50;99.90;;;;;;4976690;28;20027;-79
2022/08/21 07:40:42;;;;;;;12.98;6.07;;;17.60;99.90;;;;;;4970191;28;20515;-80
2022/08/21 07:43:08;;;;;;;11.95;5.30;;;17.70;99.90;;;;;;4963424;28;20074;-81
2022/08/21 07:45:33;;;;;;;11.32;5.43;;;17.70;99.90;;;;;;4961714;28;20031;-80
2022/08/21 07:47:59;;;;;;;12.63;5.80;;;17.80;99.90;;;;;;4965820;28;20035;-80
2022/08/21 07:50:25;;;;;;;14.60;5.90;;;17.80;99.90;;;;;;4969183;28;20042;-79
2022/08/21 07:52:52;;;;;;;12.88;5.38;;;17.90;99.90;;;;;;4967393;28;20495;-79
2022/08/21 07:55:21;;;;;;;14.57;4.30;;;18.00;99.90;;;;;;4953672;28;20046;-79
2022/08/21 07:57:47;;;;;;;9.88;4.90;;;18.10;99.90;;;;;;4985339;28;20051;-79
2022/08/21 08:00:20;;;;;;;11.85;4.28;;;18.20;99.90;;;;;;4951004;28;20123;-80
2022/08/21 08:02:49;;;;;;;14.13;4.93;;;18.10;99.90;;;;;;4968848;28;20514;-79
2022/08/21 08:05:19;;;;;;;12.38;5.10;;;18.30;99.90;;;;;;4966991;28;20047;-79
2022/08/21 08:07:45;;;;;;;11.05;4.45;;;18.30;99.90;;;;;;4966553;28;20092;-80
2022/08/21 08:10:14;;;;;;;14.15;4.78;;;18.30;99.90;;;;;;4962097;28;20122;-82
2022/08/21 08:12:41;;;;;;;11.20;4.28;;;18.40;99.90;;;;;;4978617;28;20096;-82
2022/08/21 08:15:11;;;;;;;12.13;4.07;;;18.50;99.90;;;;;;4950282;28;20495;-81
2022/08/21 08:17:38;;;;;;;13.68;4.57;;;18.50;99.90;;;;;;4942625;28;20046;-82
2022/08/21 08:20:06;;;;;;;14.57;4.15;;;18.60;99.90;;;;;;4963756;28;20049;-82
2022/08/21 08:22:34;;;;;;;10.27;3.85;;;18.60;99.90;;;;;;4966690;28;20051;-81
2022/08/21 08:25:01;;;;;;;12.63;4.50;;;18.60;99.90;;;;;;4973766;28;20038;-83
2022/08/21 08:27:27;;;;;;;11.20;4.15;;;18.70;99.90;;;;;;4961501;28;20074;-81
2022/08/21 08:29:53;;;;;;;12.90;4.53;;;18.70;99.90;;;;;;4977657;28;20055;-82
2022/08/21 08:32:19;;;;;;;8.95;4.00;;;18.70;99.90;;;;;;4966373;28;20039;-80
2022/08/21 08:34:46;;;;;;;12.95;4.40;;;18.80;99.90;;;;;;4969626;28;20047;-80
2022/08/21 08:37:13;;;;;;;9.80;4.38;;;19.00;99.90;;;;;;4960735;28;20039;-80
2022/08/21 08:39:38;;;;;;;12.52;3.58;;;19.10;99.90;;;;;;5052814;28;20046;-80
2022/08/21 08:42:14;;;;;;;9.68;3.00;;;19.20;99.90;;;;;;4968683;28;20065;-80
2022/08/21 08:44:42;;;;;;;10.77;2.60;;;19.40;99.90;;;;;;4969038;28;20068;-80
2022/08/21 08:47:10;;;;;;;6.70;2.35;;;19.60;99.90;;;;;;4961443;28;20126;-79
2022/08/21 08:49:53;;;;;;;5.38;2.10;;;19.70;99.90;;;;;;4957489;28;20042;-79
2022/08/21 08:52:36;;;;;;;8.65;2.22;;;19.80;99.90;;;;;;4955330;28;20057;-79
2022/08/21 08:55:09;;;;;;;9.18;2.75;;;20.10;99.90;;;;;;4962638;28;20078;-79
2022/08/21 08:57:36;;;;;;;7.57;2.63;;;20.30;99.90;;;;;;4982619;28;20046;-79
2022/08/21 09:00:13;;;;;;;8.13;2.13;;;20.40;99.90;;;;;;4967060;28;20449;-79
2022/08/21 09:02:40;;;;;;;7.60;1.92;;;20.60;99.90;;;;;;4966910;28;20042;-78
2022/08/21 09:05:07;;;;;;;8.30;2.20;;;20.70;99.90;;;;;;4966029;28;20039;-79
2022/08/21 09:07:45;;;;;;;7.70;2.30;;;20.90;99.90;;;;;;4964492;28;20053;-79
2022/08/21 09:10:28;;;;;;;7.53;2.15;;;21.20;99.90;;;;;;4967945;28;20065;-79
2022/08/21 09:13:16;;;;;;;8.88;2.40;;;21.30;99.90;;;;;;4976621;28;20048;-79
2022/08/21 09:15:48;;;;;;;8.85;2.22;;;21.40;99.90;;;;;;4968455;28;20053;-79
2022/08/21 09:18:13;;;;;;;7.05;2.30;;;21.50;99.90;;;;;;4972074;28;20402;-79
2022/08/21 09:21:01;;;;;;;10.80;2.40;;;21.60;99.90;;;;;;4970518;28;20121;-79
2022/08/21 09:23:54;;;;;;;9.32;2.55;;;21.70;99.90;;;;;;4966370;28;20046;-79
2022/08/21 09:26:25;;;;;;;12.15;2.55;;;21.80;99.90;;;;;;4966106;28;20046;-79
2022/08/21 09:28:58;;;;;;;8.13;2.25;;;21.90;99.90;;;;;;4967265;28;20039;-79
2022/08/21 09:31:37;;;;;;;6.25;2.53;;;22.10;99.90;;;;;;4959988;28;20047;-79
2022/08/21 09:34:11;;;;;;;8.35;2.38;;;22.20;99.90;;;;;;4965223;28;20519;-79
2022/08/21 09:36:39;;;;;;;8.68;2.42;;;22.20;99.90;;;;;;4963109;28;20082;-79
2022/08/21 09:39:09;;;;;;;9.32;2.45;;;22.30;99.90;;;;;;4963074;28;20042;-80
2022/08/21 09:41:36;;;;;;;7.40;2.70;;;22.30;99.90;;;;;;4964321;28;20090;-80
2022/08/21 09:44:07;;;;;;;9.15;2.53;;;22.50;99.90;;;;;;4965792;28;20290;-79
2022/08/21 09:46:34;;;;;;;10.15;3.25;;;22.70;99.90;;;;;;4968709;28;20097;-80
2022/08/21 09:49:02;;;;;;;7.93;2.75;;;22.80;99.90;;;;;;4968534;28;20081;-80
2022/08/21 09:51:32;;;;;;;10.73;2.88;;;22.70;99.90;;;;;;4963919;28;20126;-79
2022/08/21 09:54:14;;;;;;;9.85;3.30;;;22.60;99.90;;;;;;4973114;28;20050;-79
2022/08/21 09:59:43;;;;;;;11.70;2.92;;;22.60;99.90;;;;;;4972299;28;20057;-79
2022/08/21 10:02:29;;;;;;;8.52;2.80;;;22.70;99.90;;;;;;4967822;28;20543;-79
2022/08/21 10:04:57;;;;;;;11.38;3.47;;;22.80;99.90;;;;;;4958679;28;20389;-79
2022/08/21 10:07:26;;;;;;;6.72;2.17;;;22.80;99.90;;;;;;4961544;28;20483;-80
2022/08/21 10:10:07;;;;;;;10.20;2.70;;;22.80;99.90;;;;;;4982947;28;20065;-79
2022/08/21 10:12:58;;;;;;;9.15;2.58;;;23.00;99.90;;;;;;4971947;28;20037;-79
2022/08/21 10:15:44;;;;;;;7.72;2.80;;;23.00;99.90;;;;;;4962289;28;20035;-79
2022/08/21 10:18:28;;;;;;;9.43;2.70;;;23.20;99.90;;;;;;4951323;28;20062;-80
2022/08/21 10:20:57;;;;;;;9.25;2.65;;;23.30;99.90;;;;;;4960171;28;20415;-79
2022/08/21 10:23:54;;;;;;;8.57;2.45;;;23.50;99.90;;;;;;4991043;28;20107;-80
2022/08/21 10:26:38;;;;;;;8.10;2.40;;;23.50;98.40;;;;;;4976840;28;20560;-79
2022/08/21 10:29:15;;;;;;;9.88;3.03;;;23.30;99.20;;;;;;4960691;28;20051;-79
2022/08/21 10:31:47;;;;;;;11.60;2.70;;;23.00;99.50;;;;;;4975142;28;20038;-80
2022/08/21 10:34:23;;;;;;;9.30;2.85;;;22.70;99.50;;;;;;4975220;28;20088;-79
2022/08/21 10:37:19;;;;;;;9.52;2.30;;;22.50;99.90;;;;;;4966372;28;20041;-79
2022/08/21 10:39:58;;;;;;;8.60;2.58;;;22.40;99.90;;;;;;4976211;28;20043;-79
2022/08/21 10:42:53;;;;;;;8.93;2.75;;;22.20;99.90;;;;;;4973907;28;20034;-79
2022/08/21 10:45:41;;;;;;;9.63;2.90;;;22.10;99.90;;;;;;4972080;28;20559;-79
2022/08/21 10:48:22;;;;;;;10.90;2.63;;;22.20;99.90;;;;;;4954382;28;20128;-79
2022/08/21 10:50:53;;;;;;;11.93;2.78;;;22.50;99.90;;;;;;4964559;28;20067;-79
2022/08/21 10:53:56;;;;;;;6.70;2.50;;;22.70;99.90;;;;;;4969112;28;20077;-79
2022/08/21 10:56:29;;;;;;;6.40;2.25;;;22.90;99.90;;;;;;4975958;28;20043;-79
2022/08/21 10:59:16;;;;;;;7.38;2.30;;;23.10;99.90;;;;;;4963838;28;20037;-79
2022/08/21 11:02:08;;;;;;;8.25;2.15;;;23.40;99.90;;;;;;4973073;28;20042;-79
2022/08/21 11:04:37;;;;;;;6.03;2.10;;;23.70;99.40;;;;;;4989075;28;20463;-80
2022/08/21 11:07:56;;;;;;;7.15;2.13;;;24.00;99.50;;;;;;4975881;28;20042;-80
2022/08/21 11:10:31;;;;;;;9.25;2.30;;;23.90;98.10;;;;;;4935789;28;20035;-80
2022/08/21 11:13:05;;;;;;;8.07;2.50;;;23.80;98.50;;;;;;4959966;28;20039;-79
2022/08/21 11:15:46;;;;;;;5.75;2.17;;;23.80;98.40;;;;;;4972564;28;20039;-80
2022/08/21 11:18:43;;;;;;;6.43;2.70;;;24.00;98.60;;;;;;4971277;28;20106;-80
2022/08/21 11:21:53;;;;;;;6.18;2.10;;;24.20;98.80;;;;;;4988393;28;20047;-80
2022/08/21 11:24:41;;;;;;;8.05;2.80;;;24.50;96.80;;;;;;4934953;28;20547;-80
2022/08/21 11:27:23;;;;;;;7.88;2.30;;;24.60;96.00;;;;;;4937210;29;20051;-79
2022/08/21 11:29:58;;;;;;;9.13;2.80;;;24.50;96.40;;;;;;4960227;28;20140;-79
2022/08/21 11:32:56;;;;;;;10.05;2.25;;;24.30;96.50;;;;;;4953462;28;20038;-79
2022/08/21 11:35:38;;;;;;;6.80;2.20;;;24.30;95.90;;;;;;4953152;28;20483;-79
2022/08/21 11:38:38;;;;;;;5.95;2.10;;;24.20;95.40;;;;;;4984646;28;20308;-80
2022/08/21 11:41:39;;;;;;;7.32;2.58;;;24.20;95.80;;;;;;4978248;28;20047;-80
2022/08/21 11:44:23;;;;;;;5.20;2.30;;;24.40;95.90;;;;;;4967121;28;20051;-80
2022/08/21 11:47:01;;;;;;;7.60;2.50;;;24.70;95.90;;;;;;4968363;28;20054;-80
2022/08/21 11:49:50;;;;;;;7.50;2.20;;;24.90;94.90;;;;;;4963846;28;20035;-80
2022/08/21 11:52:29;;;;;;;9.77;3.00;;;25.00;94.70;;;;;;4963222;28;20043;-81
2022/08/21 11:55:00;;;;;;;7.25;2.40;;;25.00;94.00;;;;;;4968988;28;20110;-80
2022/08/21 11:57:33;;;;;;;5.55;2.25;;;25.00;93.80;;;;;;4970866;28;20046;-79
2022/08/21 12:00:03;;;;;;;8.82;2.58;;;25.00;93.80;;;;;;4971041;28;20127;-79
2022/08/21 12:02:34;;;;;;;9.60;2.55;;;25.10;93.80;;;;;;4971022;28;20057;-80
2022/08/21 12:05:05;;;;;;;;;;;25.00;93.90;;;;;;4955467;28;20043;-79
2022/08/21 12:07:42;;;;;;;8.40;2.30;;;24.90;93.30;;;;;;4966332;28;19926;-80
2022/08/21 12:10:20;;;;;;;8.38;2.67;;;24.80;94.00;;;;;;4972439;28;20110;-80
2022/08/21 12:12:47;;;;;;;10.45;2.70;;;24.60;94.50;;;;;;4975345;28;20434;-80
2022/08/21 12:15:19;;;;;;;9.07;2.67;;;24.50;95.10;;;;;;4956109;28;20039;-80
2022/08/21 12:18:00;;;;;;;7.63;2.53;;;24.50;94.90;;;;;;4962102;28;20193;-80
2022/08/21 12:20:29;;;;;;;6.45;2.28;;;24.50;95.00;;;;;;4983198;28;20031;-80
2022/08/21 12:23:10;;;;;;;8.93;2.40;;;24.40;94.80;;;;;;4973716;28;20046;-80
2022/08/21 12:26:00;;;;;;;7.47;2.10;;;24.50;94.30;;;;;;4957749;28;20103;-80
2022/08/21 12:28:28;;;;;;;8.35;2.28;;;24.40;94.00;;;;;;4973252;28;20043;-79
2022/08/21 12:30:54;;;;;;;7.13;2.05;;;24.30;94.30;;;;;;4964430;28;20309;-80
2022/08/21 12:33:33;;;;;;;6.72;2.38;;;24.20;94.20;;;;;;4985279;28;20061;-80
2022/08/21 12:36:21;;;;;;;8.38;2.63;;;24.20;94.40;;;;;;4976965;28;20050;-80
2022/08/21 12:39:00;;;;;;;7.40;2.53;;;24.20;94.90;;;;;;4970552;28;20448;-80
2022/08/21 12:41:28;;;;;;;8.82;2.10;;;24.30;95.00;;;;;;4971651;28;20123;-78
2022/08/21 12:44:15;;;;;;;8.23;2.35;;;24.30;94.90;;;;;;4969680;28;20065;-79
2022/08/21 12:46:44;;;;;;;6.40;2.70;;;24.30;95.00;;;;;;4955649;28;20039;-79
2022/08/21 12:49:25;;;;;;;11.48;2.50;;;24.20;94.80;;;;;;4971848;28;20039;-80
2022/08/21 12:52:00;;;;;;;8.25;2.78;;;24.20;95.00;;;;;;4967492;28;20057;-79
2022/08/21 12:54:36;;;;;;;7.57;2.80;;;24.20;95.10;;;;;;4972840;28;20542;-79
2022/08/21 12:57:05;;;;;;;7.80;2.15;;;24.30;94.90;;;;;;4987454;28;20043;-79
2022/08/21 12:59:32;;;;;;;10.00;2.65;;;24.30;94.50;;;;;;4967802;28;20529;-80
2022/08/21 13:02:02;;;;;;;6.22;2.00;;;24.30;94.00;;;;;;4964815;28;20509;-80